sensor_id;sensor_type;location;lat;lon;timestamp;pressure;altitude;pressure_sealevel;temperature;humidity
8298;BME280;4187;42.778;23.242;2022-11-20T00:00:15;94634.94;;;18.49;100.00
8298;BME280;4187;42.778;23.242;2022-11-20T00:02:43;94632.66;;;18.46;100.00
8298;BME280;4187;42.778;23.242;2022-11-20T00:05:10;94630.19;;;18.44;100.00
8298;BME280;4187;42.778;23.242;2022-11-20T00:07:37;94534.53;;;18.02;100.00
8298;BME280;4187;42.778;23.242;2022-11-20T00:10:04;94629.34;;;18.44;100.00
8298;BME280;4187;42.778;23.242;2022-11-20T00:12:31;94614.59;;;18.48;100.00
8298;BME280;4187;42.778;23.242;2022-11-20T00:14:58;94639.84;;;18.52;100.00
8298;BME280;4187;42.778;23.242;2022-11-20T00:17:25;94615.19;;;18.50;100.00
8298;BME280;4187;42.778;23.242;2022-11-20T00:19:53;94614.75;;;18.46;100.00
8298;BME280;4187;42.778;23.242;2022-11-20T00:22:20;94622.38;;;18.43;100.00
8298;BME280;4187;42.778;23.242;2022-11-20T00:24:47;94608.41;;;18.41;100.00
8298;BME280;4187;42.778;23.242;2022-11-20T00:27:13;94604.28;;;18.45;100.00
8298;BME280;4187;42.778;23.242;2022-11-20T00:29:40;94612.06;;;18.46;100.00
8298;BME280;4187;42.778;23.242;2022-11-20T00:32:07;94619.94;;;18.48;100.00
8298;BME280;4187;42.778;23.242;2022-11-20T00:34:34;94604.31;;;18.52;100.00
8298;BME280;4187;42.778;23.242;2022-11-20T00:37:02;94606.75;;;18.53;100.00
8298;BME280;4187;42.778;23.242;2022-11-20T00:39:29;94614.59;;;18.48;100.00
8298;BME280;4187;42.778;23.242;2022-11-20T00:41:56;94600.22;;;18.49;100.00
8298;BME280;4187;42.778;23.242;2022-11-20T00:44:22;94601.63;;;18.38;100.00
8298;BME280;4187;42.778;23.242;2022-11-20T00:46:49;94609.22;;;18.41;100.00
8298;BME280;4187;42.778;23.242;2022-11-20T00:49:16;94590.13;;;18.25;100.00
8298;BME280;4187;42.778;23.242;2022-11-20T00:51:43;94600.00;;;18.31;100.00
8298;BME280;4187;42.778;23.242;2022-11-20T00:54:11;94598.16;;;18.31;100.00
8298;BME280;4187;42.778;23.242;2022-11-20T00:56:38;94577.63;;;18.19;100.00
8298;BME280;4187;42.778;23.242;2022-11-20T00:59:05;94605.94;;;18.39;100.00
8298;BME280;4187;42.778;23.242;2022-11-20T01:01:32;94613.75;;;18.34;100.00
8298;BME280;4187;42.778;23.242;2022-11-20T01:03:59;94563.47;;;18.18;100.00
8298;BME280;4187;42.778;23.242;2022-11-20T01:06:28;94602.47;;;18.32;100.00
8298;BME280;4187;42.778;23.242;2022-11-20T01:08:57;94590.13;;;18.38;100.00
8298;BME280;4187;42.778;23.242;2022-11-20T01:11:27;94588.69;;;18.35;100.00
8298;BME280;4187;42.778;23.242;2022-11-20T01:13:55;94588.94;;;18.27;100.00
8298;BME280;4187;42.778;23.242;2022-11-20T01:16:23;94596.09;;;18.40;100.00
8298;BME280;4187;42.778;23.242;2022-11-20T01:18:52;94594.88;;;18.49;100.00
8298;BME280;4187;42.778;23.242;2022-11-20T01:21:21;94596.03;;;18.46;100.00
8298;BME280;4187;42.778;23.242;2022-11-20T01:23:49;94595.06;;;18.41;100.00
8298;BME280;4187;42.778;23.242;2022-11-20T01:26:18;94603.06;;;18.47;100.00
8298;BME280;4187;42.778;23.242;2022-11-20T01:28:47;94589.91;;;18.46;100.00
8298;BME280;4187;42.778;23.242;2022-11-20T01:31:16;94571.44;;;18.31;100.00
8298;BME280;4187;42.778;23.242;2022-11-20T01:33:45;94573.47;;;18.36;100.00
8298;BME280;4187;42.778;23.242;2022-11-20T01:36:14;94583.78;;;18.32;100.00
8298;BME280;4187;42.778;23.242;2022-11-20T01:38:42;94575.53;;;18.34;100.00
8298;BME280;4187;42.778;23.242;2022-11-20T01:41:10;94588.94;;;18.27;100.00
8298;BME280;4187;42.778;23.242;2022-11-20T01:43:59;94587.69;;;18.30;100.00
8298;BME280;4187;42.778;23.242;2022-11-20T01:46:25;94582.53;;;18.35;100.00
8298;BME280;4187;42.778;23.242;2022-11-20T01:48:56;94511.13;;;17.98;100.00
8298;BME280;4187;42.778;23.242;2022-11-20T01:51:29;94588.25;;;18.38;100.00
8298;BME280;4187;42.778;23.242;2022-11-20T01:54:01;94589.50;;;18.36;100.00
8298;BME280;4187;42.778;23.242;2022-11-20T01:56:31;94576.56;;;18.39;100.00
8298;BME280;4187;42.778;23.242;2022-11-20T01:59:02;94576.13;;;18.42;100.00
8298;BME280;4187;42.778;23.242;2022-11-20T02:01:30;94580.25;;;18.38;100.00
8298;BME280;4187;42.778;23.242;2022-11-20T02:03:58;94566.09;;;18.31;100.00
8298;BME280;4187;42.778;23.242;2022-11-20T02:06:27;94568.56;;;18.26;100.00
8298;BME280;4187;42.778;23.242;2022-11-20T02:08:55;94570.22;;;18.27;100.00
8298;BME280;4187;42.778;23.242;2022-11-20T02:11:22;94559.78;;;18.19;100.00
8298;BME280;4187;42.778;23.242;2022-11-20T02:13:49;94567.75;;;18.26;100.00
8298;BME280;4187;42.778;23.242;2022-11-20T02:16:20;94565.53;;;18.16;100.00
8298;BME280;4187;42.778;23.242;2022-11-20T02:18:48;94538.63;;;17.98;100.00
8298;BME280;4187;42.778;23.242;2022-11-20T02:21:24;94559.34;;;18.16;100.00
8298;BME280;4187;42.778;23.242;2022-11-20T02:24:00;94577.22;;;18.22;100.00
8298;BME280;4187;42.778;23.242;2022-11-20T02:26:28;94580.09;;;18.27;100.00
8298;BME280;4187;42.778;23.242;2022-11-20T02:28:56;94582.34;;;18.30;100.00
8298;BME280;4187;42.778;23.242;2022-11-20T02:31:25;94576.38;;;18.34;100.00
8298;BME280;4187;42.778;23.242;2022-11-20T02:33:55;94529.38;;;18.07;100.00
8298;BME280;4187;42.778;23.242;2022-11-20T02:36:24;94594.03;;;18.35;100.00
8298;BME280;4187;42.778;23.242;2022-11-20T02:38:52;94578.25;;;18.21;100.00
8298;BME280;4187;42.778;23.242;2022-11-20T02:41:21;94581.72;;;18.15;100.00
8298;BME280;4187;42.778;23.242;2022-11-20T02:43:48;94602.06;;;18.35;100.00
8298;BME280;4187;42.778;23.242;2022-11-20T02:46:15;94598.75;;;18.40;100.00
8298;BME280;4187;42.778;23.242;2022-11-20T02:48:42;94595.25;;;18.39;100.00
8298;BME280;4187;42.778;23.242;2022-11-20T02:51:08;94591.16;;;18.37;100.00
8298;BME280;4187;42.778;23.242;2022-11-20T02:53:35;94594.66;;;18.31;100.00
8298;BME280;4187;42.778;23.242;2022-11-20T02:56:02;94591.38;;;18.29;100.00
8298;BME280;4187;42.778;23.242;2022-11-20T02:58:30;94587.47;;;18.25;100.00
8298;BME280;4187;42.778;23.242;2022-11-20T03:00:57;94624.84;;;18.25;100.00
8298;BME280;4187;42.778;23.242;2022-11-20T03:03:24;94629.41;;;18.24;100.00
8298;BME280;4187;42.778;23.242;2022-11-20T03:05:51;94616.84;;;18.25;100.00
8298;BME280;4187;42.778;23.242;2022-11-20T03:08:18;94627.31;;;18.20;100.00
8298;BME280;4187;42.778;23.242;2022-11-20T03:10:45;94626.31;;;18.21;100.00
8298;BME280;4187;42.778;23.242;2022-11-20T03:13:11;94634.94;;;18.23;100.00
8298;BME280;4187;42.778;23.242;2022-11-20T03:15:40;94638.66;;;18.22;100.00
8298;BME280;4187;42.778;23.242;2022-11-20T03:18:07;94640.28;;;18.23;100.00
8298;BME280;4187;42.778;23.242;2022-11-20T03:20:34;94599.63;;;18.08;100.00
8298;BME280;4187;42.778;23.242;2022-11-20T03:23:01;94622.63;;;18.22;100.00
8298;BME280;4187;42.778;23.242;2022-11-20T03:25:28;94633.31;;;18.22;100.00
8298;BME280;4187;42.778;23.242;2022-11-20T03:27:54;94634.72;;;18.18;100.00
8298;BME280;4187;42.778;23.242;2022-11-20T03:30:21;94644.81;;;18.16;100.00
8298;BME280;4187;42.778;23.242;2022-11-20T03:32:52;94653.00;;;18.14;100.00
8298;BME280;4187;42.778;23.242;2022-11-20T03:35:20;94652.81;;;18.16;100.00
8298;BME280;4187;42.778;23.242;2022-11-20T03:37:47;94646.25;;;18.05;100.00
8298;BME280;4187;42.778;23.242;2022-11-20T03:40:14;94644.19;;;18.14;100.00
8298;BME280;4187;42.778;23.242;2022-11-20T03:42:41;94654.03;;;18.20;100.00
8298;BME280;4187;42.778;23.242;2022-11-20T03:45:14;94647.25;;;18.17;100.00
8298;BME280;4187;42.778;23.242;2022-11-20T03:47:41;94643.16;;;18.15;100.00
8298;BME280;4187;42.778;23.242;2022-11-20T03:50:11;94651.16;;;18.15;100.00
8298;BME280;4187;42.778;23.242;2022-11-20T03:52:38;94639.69;;;18.08;100.00
8298;BME280;4187;42.778;23.242;2022-11-20T03:55:06;94651.56;;;18.12;100.00
8298;BME280;4187;42.778;23.242;2022-11-20T03:57:33;94647.06;;;18.12;100.00
8298;BME280;4187;42.778;23.242;2022-11-20T04:00:00;94642.75;;;18.18;100.00
8298;BME280;4187;42.778;23.242;2022-11-20T04:02:27;94643.97;;;18.28;100.00
8298;BME280;4187;42.778;23.242;2022-11-20T04:04:54;94654.88;;;18.27;100.00
8298;BME280;4187;42.778;23.242;2022-11-20T04:07:22;94643.38;;;18.26;100.00
8298;BME280;4187;42.778;23.242;2022-11-20T04:09:49;94647.28;;;18.24;100.00
8298;BME280;4187;42.778;23.242;2022-11-20T04:12:15;94620.34;;;18.12;100.00
8298;BME280;4187;42.778;23.242;2022-11-20T04:14:42;94612.56;;;18.24;100.00
8298;BME280;4187;42.778;23.242;2022-11-20T04:17:09;94609.03;;;18.17;100.00
8298;BME280;4187;42.778;23.242;2022-11-20T04:19:36;94609.69;;;18.12;100.00
8298;BME280;4187;42.778;23.242;2022-11-20T04:22:03;94605.78;;;18.08;100.00
8298;BME280;4187;42.778;23.242;2022-11-20T04:24:31;94606.41;;;18.10;100.00
8298;BME280;4187;42.778;23.242;2022-11-20T04:26:57;94592.03;;;18.05;100.00
8298;BME280;4187;42.778;23.242;2022-11-20T04:29:24;94605.59;;;17.97;100.00
8298;BME280;4187;42.778;23.242;2022-11-20T04:31:51;94596.56;;;17.65;100.00
8298;BME280;4187;42.778;23.242;2022-11-20T04:34:18;94615.47;;;17.89;100.00
8298;BME280;4187;42.778;23.242;2022-11-20T04:36:45;94621.19;;;17.93;100.00
8298;BME280;4187;42.778;23.242;2022-11-20T04:39:13;94626.94;;;17.97;100.00
8298;BME280;4187;42.778;23.242;2022-11-20T04:41:42;94639.47;;;17.96;100.00
8298;BME280;4187;42.778;23.242;2022-11-20T04:44:09;94625.28;;;17.96;100.00
8298;BME280;4187;42.778;23.242;2022-11-20T04:46:38;94633.31;;;17.96;100.00
8298;BME280;4187;42.778;23.242;2022-11-20T04:49:05;94633.53;;;17.94;100.00
8298;BME280;4187;42.778;23.242;2022-11-20T04:51:33;94624.47;;;17.88;100.00
8298;BME280;4187;42.778;23.242;2022-11-20T04:54:00;94582.81;;;17.68;100.00
8298;BME280;4187;42.778;23.242;2022-11-20T04:56:27;94545.00;;;17.51;100.00
8298;BME280;4187;42.778;23.242;2022-11-20T04:58:55;94616.06;;;17.91;100.00
8298;BME280;4187;42.778;23.242;2022-11-20T05:01:26;94611.75;;;17.90;100.00
8298;BME280;4187;42.778;23.242;2022-11-20T05:03:52;94601.69;;;17.86;100.00
8298;BME280;4187;42.778;23.242;2022-11-20T05:06:20;94611.31;;;17.87;100.00
8298;BME280;4187;42.778;23.242;2022-11-20T05:08:48;94600.66;;;17.93;100.00
8298;BME280;4187;42.778;23.242;2022-11-20T05:11:16;94605.38;;;17.91;100.00
8298;BME280;4187;42.778;23.242;2022-11-20T05:13:44;94596.75;;;17.96;100.00
8298;BME280;4187;42.778;23.242;2022-11-20T05:16:13;94573.94;;;17.87;100.00
8298;BME280;4187;42.778;23.242;2022-11-20T05:18:41;94602.53;;;17.86;100.00
8298;BME280;4187;42.778;23.242;2022-11-20T05:21:08;94609.06;;;17.90;100.00
8298;BME280;4187;42.778;23.242;2022-11-20T05:23:36;94608.25;;;17.90;100.00
8298;BME280;4187;42.778;23.242;2022-11-20T05:26:03;94619.75;;;17.90;100.00
8298;BME280;4187;42.778;23.242;2022-11-20T05:28:31;94618.50;;;17.93;100.00
8298;BME280;4187;42.778;23.242;2022-11-20T05:31:04;94621.59;;;17.90;100.00
8298;BME280;4187;42.778;23.242;2022-11-20T05:33:34;94612.75;;;17.76;100.00
8298;BME280;4187;42.778;23.242;2022-11-20T05:36:02;94619.34;;;17.80;100.00
8298;BME280;4187;42.778;23.242;2022-11-20T05:38:28;94625.72;;;17.86;100.00
8298;BME280;4187;42.778;23.242;2022-11-20T05:41:03;94626.72;;;17.85;100.00
8298;BME280;4187;42.778;23.242;2022-11-20T05:43:32;94624.47;;;17.88;100.00
8298;BME280;4187;42.778;23.242;2022-11-20T05:45:58;94639.06;;;17.99;100.00
8298;BME280;4187;42.778;23.242;2022-11-20T05:48:25;94631.03;;;17.92;100.00
8298;BME280;4187;42.778;23.242;2022-11-20T05:50:53;94641.72;;;17.92;100.00
8298;BME280;4187;42.778;23.242;2022-11-20T05:53:20;94619.13;;;17.88;100.00
8298;BME280;4187;42.778;23.242;2022-11-20T05:55:56;94627.16;;;17.88;100.00
8298;BME280;4187;42.778;23.242;2022-11-20T05:58:23;94626.13;;;17.83;100.00
8298;BME280;4187;42.778;23.242;2022-11-20T06:00:49;94623.44;;;17.76;100.00
8298;BME280;4187;42.778;23.242;2022-11-20T06:03:16;94626.31;;;17.75;100.00
8298;BME280;4187;42.778;23.242;2022-11-20T06:05:43;94630.00;;;17.74;100.00
8298;BME280;4187;42.778;23.242;2022-11-20T06:08:11;94625.91;;;17.78;100.00
8298;BME280;4187;42.778;23.242;2022-11-20T06:10:38;94613.81;;;17.62;100.00
8298;BME280;4187;42.778;23.242;2022-11-20T06:13:05;94637.81;;;17.82;100.00
8298;BME280;4187;42.778;23.242;2022-11-20T06:15:32;94643.56;;;17.85;100.00
8298;BME280;4187;42.778;23.242;2022-11-20T06:17:59;94635.78;;;17.84;100.00
8298;BME280;4187;42.778;23.242;2022-11-20T06:20:26;94646.25;;;17.92;100.00
8298;BME280;4187;42.778;23.242;2022-11-20T06:22:52;94640.09;;;17.91;100.00
8298;BME280;4187;42.778;23.242;2022-11-20T06:25:20;94610.72;;;17.72;100.00
8298;BME280;4187;42.778;23.242;2022-11-20T06:27:47;94573.94;;;17.48;100.00
8298;BME280;4187;42.778;23.242;2022-11-20T06:30:15;94640.50;;;17.88;100.00
8298;BME280;4187;42.778;23.242;2022-11-20T06:32:42;94630.63;;;17.82;100.00
8298;BME280;4187;42.778;23.242;2022-11-20T06:35:09;94621.41;;;17.78;100.00
8298;BME280;4187;42.778;23.242;2022-11-20T06:37:36;94628.59;;;17.78;100.00
8298;BME280;4187;42.778;23.242;2022-11-20T06:40:04;94629.00;;;17.75;100.00
8298;BME280;4187;42.778;23.242;2022-11-20T06:42:32;94635.75;;;17.77;100.00
8298;BME280;4187;42.778;23.242;2022-11-20T06:44:59;94638.66;;;17.76;100.00
8298;BME280;4187;42.778;23.242;2022-11-20T06:47:26;94631.25;;;17.78;100.00
8298;BME280;4187;42.778;23.242;2022-11-20T06:49:53;94644.19;;;17.87;100.00
8298;BME280;4187;42.778;23.242;2022-11-20T06:52:20;94643.78;;;17.77;100.00
8298;BME280;4187;42.778;23.242;2022-11-20T06:54:47;94656.28;;;17.90;100.00
8298;BME280;4187;42.778;23.242;2022-11-20T06:57:14;94649.94;;;17.78;100.00
8298;BME280;4187;42.778;23.242;2022-11-20T06:59:42;94647.66;;;17.68;100.00
8298;BME280;4187;42.778;23.242;2022-11-20T07:02:09;94645.63;;;17.70;100.00
8298;BME280;4187;42.778;23.242;2022-11-20T07:04:37;94658.97;;;17.70;100.00
8298;BME280;4187;42.778;23.242;2022-11-20T07:07:04;94658.72;;;17.65;100.00
8298;BME280;4187;42.778;23.242;2022-11-20T07:09:31;94669.41;;;17.65;100.00
8298;BME280;4187;42.778;23.242;2022-11-20T07:11:58;94681.13;;;17.64;100.00
8298;BME280;4187;42.778;23.242;2022-11-20T07:14:25;94679.47;;;17.57;100.00
8298;BME280;4187;42.778;23.242;2022-11-20T07:16:53;94677.75;;;17.49;100.00
8298;BME280;4187;42.778;23.242;2022-11-20T07:19:20;94633.72;;;17.06;100.00
8298;BME280;4187;42.778;23.242;2022-11-20T07:21:47;94684.06;;;17.28;100.00
8298;BME280;4187;42.778;23.242;2022-11-20T07:24:14;94687.91;;;17.13;100.00
8298;BME280;4187;42.778;23.242;2022-11-20T07:26:41;94679.69;;;17.14;100.00
8298;BME280;4187;42.778;23.242;2022-11-20T07:29:07;94674.41;;;17.21;100.00
8298;BME280;4187;42.778;23.242;2022-11-20T07:31:34;94672.78;;;17.26;100.00
8298;BME280;4187;42.778;23.242;2022-11-20T07:34:02;94670.91;;;17.20;100.00
8298;BME280;4187;42.778;23.242;2022-11-20T07:36:29;94666.78;;;17.18;100.00
8298;BME280;4187;42.778;23.242;2022-11-20T07:38:56;94670.25;;;17.12;100.00
8298;BME280;4187;42.778;23.242;2022-11-20T07:41:23;94646.41;;;16.97;100.00
8298;BME280;4187;42.778;23.242;2022-11-20T07:43:50;94677.06;;;17.27;100.00
8298;BME280;4187;42.778;23.242;2022-11-20T07:46:16;94679.56;;;17.29;100.00
8298;BME280;4187;42.778;23.242;2022-11-20T07:48:43;94675.69;;;17.38;100.00
8298;BME280;4187;42.778;23.242;2022-11-20T07:51:11;94680.41;;;17.43;100.00
8298;BME280;4187;42.778;23.242;2022-11-20T07:53:38;94677.13;;;17.47;100.00
8298;BME280;4187;42.778;23.242;2022-11-20T07:56:06;94677.34;;;17.46;100.00
8298;BME280;4187;42.778;23.242;2022-11-20T07:58:33;94653.72;;;17.36;100.00
8298;BME280;4187;42.778;23.242;2022-11-20T08:01:03;94679.03;;;17.53;100.00
8298;BME280;4187;42.778;23.242;2022-11-20T08:03:30;94681.69;;;17.53;100.00
8298;BME280;4187;42.778;23.242;2022-11-20T08:05:58;94699.97;;;17.56;100.00
8298;BME280;4187;42.778;23.242;2022-11-20T08:08:27;94693.34;;;17.52;100.00
8298;BME280;4187;42.778;23.242;2022-11-20T08:10:56;94688.06;;;17.65;100.00
8298;BME280;4187;42.778;23.242;2022-11-20T08:13:43;94683.63;;;17.92;100.00
8298;BME280;4187;42.778;23.242;2022-11-20T08:16:27;94679.72;;;17.81;100.00
8298;BME280;4187;42.778;23.242;2022-11-20T08:18:54;94677.63;;;17.77;100.00
8298;BME280;4187;42.778;23.242;2022-11-20T08:21:21;94670.22;;;17.59;100.00
8298;BME280;4187;42.778;23.242;2022-11-20T08:23:50;94689.72;;;17.53;100.00
8298;BME280;4187;42.778;23.242;2022-11-20T08:26:17;94707.09;;;17.49;100.00
8298;BME280;4187;42.778;23.242;2022-11-20T08:28:44;94689.66;;;17.40;100.00
8298;BME280;4187;42.778;23.242;2022-11-20T08:31:11;94708.72;;;17.37;100.00
8298;BME280;4187;42.778;23.242;2022-11-20T08:33:38;94709.50;;;17.31;100.00
8298;BME280;4187;42.778;23.242;2022-11-20T08:36:05;94702.91;;;17.20;100.00
8298;BME280;4187;42.778;23.242;2022-11-20T08:38:32;94712.28;;;17.10;100.00
8298;BME280;4187;42.778;23.242;2022-11-20T08:41:03;94705.69;;;17.06;100.00
8298;BME280;4187;42.778;23.242;2022-11-20T08:43:48;94694.97;;;16.93;100.00
8298;BME280;4187;42.778;23.242;2022-11-20T08:46:14;94704.25;;;16.97;100.00
8298;BME280;4187;42.778;23.242;2022-11-20T08:48:42;94707.44;;;16.86;100.00
8298;BME280;4187;42.778;23.242;2022-11-20T08:51:11;94721.16;;;16.83;100.00
8298;BME280;4187;42.778;23.242;2022-11-20T08:53:38;94726.06;;;16.79;100.00
8298;BME280;4187;42.778;23.242;2022-11-20T08:56:07;94701.16;;;16.65;100.00
8298;BME280;4187;42.778;23.242;2022-11-20T08:58:35;94697.72;;;16.44;100.00
8298;BME280;4187;42.778;23.242;2022-11-20T09:01:02;94728.88;;;16.43;100.00
8298;BME280;4187;42.778;23.242;2022-11-20T09:03:29;94728.75;;;16.30;100.00
8298;BME280;4187;42.778;23.242;2022-11-20T09:05:59;94719.38;;;16.34;100.00
8298;BME280;4187;42.778;23.242;2022-11-20T09:08:27;94729.56;;;16.24;100.00
8298;BME280;4187;42.778;23.242;2022-11-20T09:10:54;94713.06;;;16.14;100.00
8298;BME280;4187;42.778;23.242;2022-11-20T09:13:24;94730.38;;;16.25;100.00
8298;BME280;4187;42.778;23.242;2022-11-20T09:15:55;94728.28;;;16.20;100.00
8298;BME280;4187;42.778;23.242;2022-11-20T09:18:22;94729.94;;;16.21;100.00
8298;BME280;4187;42.778;23.242;2022-11-20T09:20:49;94726.88;;;16.24;100.00
8298;BME280;4187;42.778;23.242;2022-11-20T09:23:16;94709.66;;;15.99;100.00
8298;BME280;4187;42.778;23.242;2022-11-20T09:25:43;94718.78;;;16.11;100.00
8298;BME280;4187;42.778;23.242;2022-11-20T09:28:10;94719.66;;;16.18;100.00
8298;BME280;4187;42.778;23.242;2022-11-20T09:30:38;94717.47;;;16.28;100.00
8298;BME280;4187;42.778;23.242;2022-11-20T09:33:05;94715.66;;;16.29;100.00
8298;BME280;4187;42.778;23.242;2022-11-20T09:35:33;94712.00;;;16.36;100.00
8298;BME280;4187;42.778;23.242;2022-11-20T09:38:04;94686.84;;;16.39;100.00
8298;BME280;4187;42.778;23.242;2022-11-20T09:40:32;94663.47;;;16.34;100.00
8298;BME280;4187;42.778;23.242;2022-11-20T09:43:03;94689.88;;;16.57;100.00
8298;BME280;4187;42.778;23.242;2022-11-20T09:45:48;94681.75;;;16.71;100.00
8298;BME280;4187;42.778;23.242;2022-11-20T09:48:32;94682.19;;;16.82;100.00
8298;BME280;4187;42.778;23.242;2022-11-20T09:51:09;94676.16;;;17.01;100.00
8298;BME280;4187;42.778;23.242;2022-11-20T09:53:48;94677.84;;;17.08;100.00
8298;BME280;4187;42.778;23.242;2022-11-20T09:56:20;94663.31;;;17.17;100.00
8298;BME280;4187;42.778;23.242;2022-11-20T09:58:49;94657.22;;;17.30;100.00
8298;BME280;4187;42.778;23.242;2022-11-20T10:01:19;94656.41;;;17.43;100.00
8298;BME280;4187;42.778;23.242;2022-11-20T10:03:53;94661.81;;;17.56;100.00
8298;BME280;4187;42.778;23.242;2022-11-20T10:06:27;94656.50;;;17.62;100.00
8298;BME280;4187;42.778;23.242;2022-11-20T10:09:01;94658.13;;;17.63;100.00
8298;BME280;4187;42.778;23.242;2022-11-20T10:11:41;94661.22;;;17.67;100.00
8298;BME280;4187;42.778;23.242;2022-11-20T10:14:19;94654.03;;;17.67;100.00
8298;BME280;4187;42.778;23.242;2022-11-20T10:16:55;94658.34;;;17.75;100.00
8298;BME280;4187;42.778;23.242;2022-11-20T10:19:37;94660.00;;;17.82;100.00
8298;BME280;4187;42.778;23.242;2022-11-20T10:22:14;94651.19;;;17.88;100.00
8298;BME280;4187;42.778;23.242;2022-11-20T10:24:52;94645.63;;;18.10;100.00
8298;BME280;4187;42.778;23.242;2022-11-20T10:27:34;94655.47;;;18.09;100.00
8298;BME280;4187;42.778;23.242;2022-11-20T10:30:09;94651.81;;;17.97;100.00
8298;BME280;4187;42.778;23.242;2022-11-20T10:32:40;94661.19;;;17.73;100.00
8298;BME280;4187;42.778;23.242;2022-11-20T10:35:18;94671.22;;;17.52;100.00
8298;BME280;4187;42.778;23.242;2022-11-20T10:37:49;94669.09;;;17.34;100.00
8298;BME280;4187;42.778;23.242;2022-11-20T10:40:26;94655.13;;;17.19;100.00
8298;BME280;4187;42.778;23.242;2022-11-20T10:42:57;94655.69;;;17.08;100.00
8298;BME280;4187;42.778;23.242;2022-11-20T10:45:44;94628.94;;;16.88;100.00
8298;BME280;4187;42.778;23.242;2022-11-20T10:48:21;94628.75;;;16.90;100.00
8298;BME280;4187;42.778;23.242;2022-11-20T10:51:10;94623.19;;;16.85;100.00
8298;BME280;4187;42.778;23.242;2022-11-20T10:53:55;94627.53;;;16.92;100.00
8298;BME280;4187;42.778;23.242;2022-11-20T10:56:30;94639.59;;;16.88;100.00
8298;BME280;4187;42.778;23.242;2022-11-20T10:59:12;94680.84;;;16.58;100.00
8298;BME280;4187;42.778;23.242;2022-11-20T11:01:45;94653.16;;;15.97;100.00
8298;BME280;4187;42.778;23.242;2022-11-20T11:04:26;94676.94;;;15.20;100.00
8298;BME280;4187;42.778;23.242;2022-11-20T11:07:01;94649.91;;;14.81;100.00
8298;BME280;4187;42.778;23.242;2022-11-20T11:09:33;94623.00;;;14.69;100.00
8298;BME280;4187;42.778;23.242;2022-11-20T11:12:01;94620.44;;;14.61;100.00
8298;BME280;4187;42.778;23.242;2022-11-20T11:14:27;94619.81;;;14.45;100.00
8298;BME280;4187;42.778;23.242;2022-11-20T11:16:55;94647.97;;;14.31;100.00
8298;BME280;4187;42.778;23.242;2022-11-20T11:19:24;94640.66;;;14.18;100.00
8298;BME280;4187;42.778;23.242;2022-11-20T11:21:53;94630.66;;;14.06;100.00
8298;BME280;4187;42.778;23.242;2022-11-20T11:24:22;94658.63;;;13.94;100.00
8298;BME280;4187;42.778;23.242;2022-11-20T11:26:55;94658.06;;;13.84;100.00
8298;BME280;4187;42.778;23.242;2022-11-20T11:29:22;94647.06;;;13.72;100.00
8298;BME280;4187;42.778;23.242;2022-11-20T11:32:03;94611.97;;;13.47;100.00
8298;BME280;4187;42.778;23.242;2022-11-20T11:34:32;94622.41;;;13.49;100.00
8298;BME280;4187;42.778;23.242;2022-11-20T11:36:59;94651.06;;;13.68;100.00
8298;BME280;4187;42.778;23.242;2022-11-20T11:39:27;94656.00;;;13.71;100.00
8298;BME280;4187;42.778;23.242;2022-11-20T11:41:55;94668.75;;;13.75;100.00
8298;BME280;4187;42.778;23.242;2022-11-20T11:44:24;94677.81;;;13.81;100.00
8298;BME280;4187;42.778;23.242;2022-11-20T11:47:25;94675.47;;;13.86;100.00
8298;BME280;4187;42.778;23.242;2022-11-20T11:50:08;94682.38;;;13.87;100.00
8298;BME280;4187;42.778;23.242;2022-11-20T11:52:43;94686.91;;;14.01;100.00
8298;BME280;4187;42.778;23.242;2022-11-20T11:55:15;94681.25;;;14.04;100.00
8298;BME280;4187;42.778;23.242;2022-11-20T11:57:47;94664.41;;;14.12;100.00
8298;BME280;4187;42.778;23.242;2022-11-20T12:00:18;94674.13;;;14.05;100.00
8298;BME280;4187;42.778;23.242;2022-11-20T12:02:54;94676.50;;;14.14;100.00
8298;BME280;4187;42.778;23.242;2022-11-20T12:05:27;94693.72;;;14.18;100.00
8298;BME280;4187;42.778;23.242;2022-11-20T12:07:57;94679.63;;;14.18;100.00
8298;BME280;4187;42.778;23.242;2022-11-20T12:10:37;94678.78;;;14.17;100.00
8298;BME280;4187;42.778;23.242;2022-11-20T12:13:17;94686.13;;;14.15;100.00
8298;BME280;4187;42.778;23.242;2022-11-20T12:15:47;94686.94;;;14.16;100.00
8298;BME280;4187;42.778;23.242;2022-11-20T12:18:16;94682.00;;;14.13;100.00
8298;BME280;4187;42.778;23.242;2022-11-20T12:20:57;94686.94;;;14.16;100.00
8298;BME280;4187;42.778;23.242;2022-11-20T12:23:30;94695.91;;;14.15;100.00
8298;BME280;4187;42.778;23.242;2022-11-20T12:26:07;94695.19;;;14.21;100.00
8298;BME280;4187;42.778;23.242;2022-11-20T12:28:47;94690.03;;;14.19;100.00
8298;BME280;4187;42.778;23.242;2022-11-20T12:31:35;94683.56;;;14.22;100.00
8298;BME280;4187;42.778;23.242;2022-11-20T12:34:23;94692.97;;;14.32;100.00
8298;BME280;4187;42.778;23.242;2022-11-20T12:37:02;94669.56;;;14.28;100.00
8298;BME280;4187;42.778;23.242;2022-11-20T12:39:35;94650.66;;;14.46;100.00
8298;BME280;4187;42.778;23.242;2022-11-20T12:42:27;94643.53;;;14.46;100.00
8298;BME280;4187;42.778;23.242;2022-11-20T12:45:41;94648.53;;;14.41;100.00
8298;BME280;4187;42.778;23.242;2022-11-20T12:48:33;94643.53;;;14.31;100.00
8298;BME280;4187;42.778;23.242;2022-11-20T12:51:18;94645.97;;;14.33;100.00
8298;BME280;4187;42.778;23.242;2022-11-20T12:53:58;94636.81;;;14.35;100.00
8298;BME280;4187;42.778;23.242;2022-11-20T12:56:36;94633.16;;;14.36;100.00
8298;BME280;4187;42.778;23.242;2022-11-20T12:59:20;94610.72;;;14.24;100.00
8298;BME280;4187;42.778;23.242;2022-11-20T13:01:53;94601.06;;;14.46;100.00
8298;BME280;4187;42.778;23.242;2022-11-20T13:04:37;94621.16;;;14.70;100.00
8298;BME280;4187;42.778;23.242;2022-11-20T13:07:07;94624.75;;;14.62;100.00
8298;BME280;4187;42.778;23.242;2022-11-20T13:09:42;94627.03;;;14.51;100.00
8298;BME280;4187;42.778;23.242;2022-11-20T13:12:13;94630.78;;;14.56;100.00
8298;BME280;4187;42.778;23.242;2022-11-20T13:14:45;94624.94;;;14.46;100.00